Time;durP1;ratioP1;P1;durP2;ratioP2;P2;SDS_P1;SDS_P2;PMS_P1;PMS_P2;Temp;Humidity;BMP_temperature;BMP_pressure;BME280_temperature;BME280_humidity;BME280_pressure;Samples;Min_cycle;Max_cycle;Signal;HPM_P1;HPM_P2
2022/01/07 00:01:49;;;;;;;23.55;9.65;;;;;;;2.20;79.46;101362.22;4995271;28;20030;-56
2022/01/07 00:04:15;;;;;;;19.80;8.95;;;;;;;2.20;79.24;101376.69;4994940;28;20026;-56
2022/01/07 00:06:40;;;;;;;21.25;9.88;;;;;;;2.24;79.01;101363.41;4993503;28;20121;-57
2022/01/07 00:09:05;;;;;;;21.48;10.20;;;;;;;2.23;78.97;101361.72;4994975;28;20125;-56
2022/01/07 00:11:30;;;;;;;23.52;10.88;;;;;;;2.25;78.48;101351.41;4994819;28;20466;-56
2022/01/07 00:13:56;;;;;;;20.77;9.43;;;;;;;2.29;77.89;101345.25;4994599;28;20134;-56
2022/01/07 00:16:21;;;;;;;21.50;10.20;;;;;;;2.28;78.08;101351.75;4994743;28;20026;-56
2022/01/07 00:18:46;;;;;;;21.85;10.25;;;;;;;2.33;78.01;101342.84;4994452;28;20030;-56
2022/01/07 00:21:12;;;;;;;22.20;9.45;;;;;;;2.45;77.69;101354.63;4994759;28;20385;-56
2022/01/07 00:23:37;;;;;;;16.80;8.95;;;;;;;2.44;78.41;101346.66;4994956;28;20034;-56
2022/01/07 00:26:03;;;;;;;20.60;10.23;;;;;;;2.38;79.16;101333.94;4995114;28;20110;-56
2022/01/07 00:28:28;;;;;;;20.42;9.20;;;;;;;2.40;78.93;101343.59;4994759;28;20034;-56
2022/01/07 00:30:55;;;;;;;20.23;9.30;;;;;;;2.36;79.36;101327.91;4994964;28;20057;-56
2022/01/07 00:33:20;;;;;;;21.83;10.60;;;;;;;2.29;79.83;101328.03;4995022;28;20034;-57
2022/01/07 00:35:46;;;;;;;21.10;10.98;;;;;;;2.22;80.19;101327.34;4994496;28;20029;-55
2022/01/07 00:38:11;;;;;;;21.60;10.18;;;;;;;2.20;81.37;101319.38;4994568;28;20533;-55
2022/01/07 00:40:37;;;;;;;20.17;10.20;;;;;;;2.15;80.59;101317.34;4994663;28;20182;-56
2022/01/07 00:43:02;;;;;;;19.42;9.60;;;;;;;2.15;81.08;101314.63;4994733;28;20061;-57
2022/01/07 00:45:28;;;;;;;19.25;9.80;;;;;;;2.23;80.44;101310.72;4994789;28;20029;-55
2022/01/07 00:47:55;;;;;;;20.77;9.73;;;;;;;2.04;80.67;101282.69;4994194;28;20520;-56
2022/01/07 00:50:21;;;;;;;19.60;9.98;;;;;;;2.14;81.08;101296.59;4994593;28;20034;-56
2022/01/07 00:52:47;;;;;;;19.60;8.88;;;;;;;2.18;81.66;101294.19;4994253;28;20026;-55
2022/01/07 00:55:13;;;;;;;21.48;9.98;;;;;;;2.18;82.04;101286.00;4994458;28;20055;-56
2022/01/07 00:57:39;;;;;;;22.88;11.07;;;;;;;2.03;83.21;101283.78;4993887;28;20110;-55
2022/01/07 01:00:08;;;;;;;22.00;10.45;;;;;;;1.96;83.92;101267.53;4994176;28;20109;-54
2022/01/07 01:02:33;;;;;;;23.20;10.80;;;;;;;1.91;83.70;101269.31;4991737;28;20077;-55
2022/01/07 01:04:58;;;;;;;22.98;11.30;;;;;;;1.86;84.33;101265.38;4993198;28;20057;-54
2022/01/07 01:07:23;;;;;;;22.98;10.45;;;;;;;1.81;85.09;101261.72;4994059;28;20026;-54
2022/01/07 01:09:49;;;;;;;22.63;10.73;;;;;;;1.78;85.72;101268.47;4994092;28;20034;-54
2022/01/07 01:12:14;;;;;;;22.95;10.80;;;;;;;1.77;85.51;101250.44;4993395;28;20105;-54
2022/01/07 01:14:40;;;;;;;21.92;10.48;;;;;;;1.77;85.87;101247.72;4994258;28;20500;-55
2022/01/07 01:17:06;;;;;;;22.10;11.30;;;;;;;1.75;85.89;101249.84;4993552;28;20489;-54
2022/01/07 01:19:31;;;;;;;22.40;10.88;;;;;;;1.78;85.21;101246.66;4993889;28;20029;-57
2022/01/07 01:21:56;;;;;;;22.25;10.18;;;;;;;1.75;84.78;101235.38;4993828;28;20026;-55
2022/01/07 01:24:22;;;;;;;21.50;9.63;;;;;;;1.77;85.38;101239.53;4994333;28;20045;-55
2022/01/07 01:26:47;;;;;;;22.10;10.02;;;;;;;1.84;84.95;101233.97;4993552;28;20081;-55
2022/01/07 01:29:13;;;;;;;20.90;9.48;;;;;;;1.83;85.09;101232.28;4993599;28;20085;-56
2022/01/07 01:31:38;;;;;;;21.55;10.40;;;;;;;1.83;84.45;101229.56;4994315;28;20026;-56
2022/01/07 01:34:04;;;;;;;21.10;10.02;;;;;;;1.82;84.38;101222.44;4993136;28;20105;-57
2022/01/07 01:36:30;;;;;;;21.23;9.80;;;;;;;1.83;84.77;101218.66;4993716;28;20046;-55
2022/01/07 01:38:56;;;;;;;19.35;10.02;;;;;;;1.82;84.33;101217.00;4994033;28;20030;-54
2022/01/07 01:41:21;;;;;;;22.30;9.77;;;;;;;1.85;84.29;101219.25;4993707;28;20022;-54
2022/01/07 01:43:48;;;;;;;19.25;9.48;;;;;;;1.89;84.44;101219.59;4993912;28;20102;-56
2022/01/07 01:46:15;;;;;;;19.98;9.32;;;;;;;1.87;84.42;101207.03;4993570;28;20045;-56
2022/01/07 01:48:41;;;;;;;18.88;8.63;;;;;;;1.90;84.17;101196.72;4993058;28;20033;-55
2022/01/07 01:51:06;;;;;;;20.27;9.95;;;;;;;1.92;83.13;101200.03;4992907;28;20125;-54
2022/01/07 01:53:32;;;;;;;20.35;9.10;;;;;;;1.93;83.74;101186.16;4993162;28;20417;-55
2022/01/07 01:55:57;;;;;;;18.63;9.27;;;;;;;1.97;82.97;101173.69;4993397;28;20126;-55
2022/01/07 01:58:23;;;;;;;21.63;9.95;;;;;;;1.94;83.37;101187.81;4993404;28;20590;-55
2022/01/07 02:00:48;;;;;;;21.77;10.55;;;;;;;1.94;83.46;101165.13;4993407;28;20076;-55
2022/01/07 02:03:13;;;;;;;20.50;9.82;;;;;;;1.95;82.70;101166.78;4992851;28;20466;-55
2022/01/07 02:05:39;;;;;;;20.75;9.70;;;;;;;1.98;83.23;101163.59;4992395;28;20030;-54
2022/01/07 02:08:04;;;;;;;20.85;9.52;;;;;;;1.98;83.55;101169.06;4992840;28;20153;-55
2022/01/07 02:10:29;;;;;;;19.23;9.35;;;;;;;2.12;82.75;101166.88;4993016;28;20066;-55
2022/01/07 02:12:55;;;;;;;20.85;9.32;;;;;;;2.00;83.15;101170.47;4993285;28;20401;-55
2022/01/07 02:15:21;;;;;;;20.35;8.43;;;;;;;2.05;82.59;101158.00;4993029;28;20030;-57
2022/01/07 02:17:48;;;;;;;18.35;8.57;;;;;;;2.12;81.57;101150.50;4995868;28;20034;-55
2022/01/07 02:20:16;;;;;;;18.05;8.70;;;;;;;2.11;82.25;101170.69;4996280;28;20038;-56
2022/01/07 02:22:42;;;;;;;18.65;9.00;;;;;;;2.10;81.95;101167.13;4997122;28;20022;-56
2022/01/07 02:25:09;;;;;;;18.55;8.40;;;;;;;2.14;82.13;101168.28;4997107;28;20531;-55
2022/01/07 02:27:37;;;;;;;18.20;8.90;;;;;;;2.27;80.78;101160.91;4997119;28;20495;-55
2022/01/07 02:30:04;;;;;;;18.38;8.80;;;;;;;2.26;81.14;101149.16;4995771;28;20069;-55
2022/01/07 02:32:29;;;;;;;24.92;9.45;;;;;;;2.29;80.65;101147.84;4996454;28;20026;-55
2022/01/07 02:34:54;;;;;;;17.65;8.90;;;;;;;2.26;80.66;101135.53;4995744;28;20023;-54
2022/01/07 02:37:20;;;;;;;19.13;8.38;;;;;;;2.24;81.28;101145.84;4996331;28;20034;-56
2022/01/07 02:39:46;;;;;;;18.85;9.00;;;;;;;2.25;81.48;101136.59;4995684;28;20133;-56
2022/01/07 02:42:11;;;;;;;19.67;8.90;;;;;;;2.31;81.72;101140.25;4997507;28;20037;-56
2022/01/07 02:44:37;;;;;;;15.90;8.18;;;;;;;2.46;81.62;101129.59;4996996;28;20022;-55
2022/01/07 02:47:03;;;;;;;16.13;8.57;;;;;;;2.42;81.85;101136.63;4997014;28;20030;-55
2022/01/07 02:49:29;;;;;;;16.80;8.30;;;;;;;2.32;83.38;101140.00;4996176;28;20031;-55
2022/01/07 02:51:54;;;;;;;18.58;8.63;;;;;;;2.22;84.33;101134.34;4996374;28;20371;-55
2022/01/07 02:54:19;;;;;;;19.15;10.13;;;;;;;2.15;85.34;101129.00;4996517;28;20090;-56
2022/01/07 02:56:44;;;;;;;17.05;8.48;;;;;;;2.17;85.36;101129.59;4996400;28;20038;-53
2022/01/07 02:59:10;;;;;;;14.40;8.45;;;;;;;2.19;84.71;101132.06;4995940;28;20026;-54
2022/01/07 03:01:37;;;;;;;19.55;9.25;;;;;;;2.05;86.55;101122.53;4995487;28;20030;-54
2022/01/07 03:04:04;;;;;;;19.30;8.73;;;;;;;2.02;87.06;101121.94;4995865;28;20038;-54
2022/01/07 03:06:29;;;;;;;17.58;9.35;;;;;;;2.00;87.29;101110.44;4994936;28;20022;-54
2022/01/07 03:08:55;;;;;;;17.65;8.40;;;;;;;2.01;87.17;101114.81;4995788;28;20482;-54
2022/01/07 03:11:21;;;;;;;18.70;8.07;;;;;;;1.98;87.18;101115.31;4995344;28;20058;-54
2022/01/07 03:13:46;;;;;;;21.55;8.68;;;;;;;1.86;88.93;101112.59;4995565;28;20089;-54
2022/01/07 03:16:12;;;;;;;19.17;9.25;;;;;;;1.83;88.49;101104.91;4995445;28;20038;-54
2022/01/07 03:18:37;;;;;;;19.42;8.30;;;;;;;1.84;88.91;101103.00;4995942;28;20045;-54
2022/01/07 03:21:03;;;;;;;17.30;8.95;;;;;;;1.71;90.06;101090.47;4995765;28;20026;-53
2022/01/07 03:23:29;;;;;;;18.77;8.95;;;;;;;1.79;89.09;101100.19;4995701;28;20057;-54
2022/01/07 03:25:54;;;;;;;17.15;8.52;;;;;;;1.74;89.45;101095.44;4995927;28;20074;-55
2022/01/07 03:28:20;;;;;;;18.52;8.90;;;;;;;1.79;88.78;101097.47;4994888;28;20030;-55
2022/01/07 03:30:46;;;;;;;17.80;9.15;;;;;;;1.56;90.95;101096.44;4995872;28;20034;-55
2022/01/07 03:33:12;;;;;;;17.15;8.82;;;;;;;1.63;89.80;101102.56;4996107;28;20489;-57
2022/01/07 03:35:38;;;;;;;19.98;9.15;;;;;;;1.54;90.56;101093.09;4995699;28;20026;-55
2022/01/07 03:38:04;;;;;;;19.45;9.75;;;;;;;1.53;90.55;101089.56;4995125;28;20030;-56
2022/01/07 03:40:29;;;;;;;18.13;9.27;;;;;;;1.45;91.88;101089.09;4995387;28;20026;-55
2022/01/07 03:42:56;;;;;;;17.48;8.60;;;;;;;1.46;91.59;101082.56;4995123;28;20022;-55
2022/01/07 03:45:22;;;;;;;19.58;9.00;;;;;;;1.40;91.67;101078.91;4995685;28;20077;-56
2022/01/07 03:47:48;;;;;;;17.80;9.38;;;;;;;1.40;92.45;101073.44;4995666;28;20481;-56
2022/01/07 03:50:16;;;;;;;17.30;8.57;;;;;;;1.36;91.98;101073.09;4995271;28;20037;-54
2022/01/07 03:52:42;;;;;;;19.42;9.05;;;;;;;1.45;91.95;101070.84;4995411;28;20030;-57
2022/01/07 03:55:10;;;;;;;17.67;9.32;;;;;;;1.38;93.25;101064.66;4995918;28;20415;-54
2022/01/07 03:57:35;;;;;;;19.30;9.88;;;;;;;1.39;93.70;101058.16;4995203;28;20454;-54
2022/01/07 04:00:01;;;;;;;16.67;8.75;;;;;;;1.40;93.95;101062.53;4995386;28;20112;-57
2022/01/07 04:02:26;;;;;;;19.08;9.00;;;;;;;1.40;93.40;101057.09;4995072;28;20501;-57
2022/01/07 04:04:51;;;;;;;20.17;9.25;;;;;;;1.42;93.74;101051.41;4995252;28;20030;-55
2022/01/07 04:07:17;;;;;;;20.33;9.82;;;;;;;1.50;93.67;101051.84;4994913;28;20026;-54
2022/01/07 04:09:42;;;;;;;20.17;8.65;;;;;;;1.58;93.31;101038.91;4995078;28;20054;-56
2022/01/07 04:12:08;;;;;;;19.10;10.02;;;;;;;1.50;93.43;101040.94;4994458;28;20105;-57
2022/01/07 04:14:33;;;;;;;18.05;8.80;;;;;;;1.54;92.81;101039.41;4995025;28;20045;-54
2022/01/07 04:16:59;;;;;;;16.65;8.55;;;;;;;1.58;92.83;101047.09;4994937;28;20084;-54
2022/01/07 04:19:24;;;;;;;19.00;9.05;;;;;;;1.62;93.08;101053.72;4995355;28;20397;-55
2022/01/07 04:21:50;;;;;;;19.20;8.77;;;;;;;1.61;93.69;101052.88;4995333;28;20026;-55
2022/01/07 04:24:16;;;;;;;17.27;8.32;;;;;;;1.63;93.18;101047.22;4994646;28;20035;-54
2022/01/07 04:26:41;;;;;;;19.48;9.02;;;;;;;1.60;93.42;101047.69;4995045;28;20023;-54
2022/01/07 04:29:07;;;;;;;20.27;9.07;;;;;;;1.64;93.83;101046.16;4994702;28;20026;-54
2022/01/07 04:31:32;;;;;;;19.75;9.90;;;;;;;1.60;94.05;101037.63;4995436;28;20045;-56
2022/01/07 04:33:57;;;;;;;20.55;9.82;;;;;;;1.59;94.77;101040.56;4994662;28;20033;-56
2022/01/07 04:36:23;;;;;;;18.23;9.70;;;;;;;1.59;94.26;101040.56;4994648;28;20030;-54
2022/01/07 04:38:48;;;;;;;19.13;9.48;;;;;;;1.60;95.07;101037.63;4994890;28;20022;-56
2022/01/07 04:41:14;;;;;;;17.98;9.32;;;;;;;1.61;95.42;101052.06;4994325;28;20089;-55
2022/01/07 04:43:39;;;;;;;19.23;9.55;;;;;;;1.60;95.10;101034.91;4994689;28;20045;-55
2022/01/07 04:46:04;;;;;;;19.40;9.63;;;;;;;1.70;94.43;101036.97;4994590;28;20093;-56
2022/01/07 04:48:30;;;;;;;20.00;9.80;;;;;;;1.69;95.56;101032.59;4994645;28;20375;-55
2022/01/07 04:50:55;;;;;;;19.38;9.13;;;;;;;1.65;95.65;101032.25;4994359;28;20058;-54
2022/01/07 04:53:21;;;;;;;17.08;8.55;;;;;;;1.74;94.68;101029.13;4993268;28;20032;-54
2022/01/07 04:55:47;;;;;;;17.70;8.93;;;;;;;1.73;94.93;101028.31;4994032;28;20026;-54
2022/01/07 04:58:13;;;;;;;18.67;10.07;;;;;;;1.70;95.76;101021.44;4993871;28;20026;-57
2022/01/07 05:00:40;;;;;;;17.20;8.48;;;;;;;1.83;94.45;101030.41;4994451;28;20442;-55
2022/01/07 05:03:06;;;;;;;19.42;9.57;;;;;;;1.77;95.25;101015.84;4992399;28;20046;-54
2022/01/07 05:05:31;;;;;;;21.15;10.18;;;;;;;1.84;95.15;101018.44;4994179;28;20069;-55
2022/01/07 05:07:56;;;;;;;19.98;10.57;;;;;;;1.81;95.91;101016.19;4993794;28;20037;-55
2022/01/07 05:10:22;;;;;;;20.58;10.05;;;;;;;1.86;95.37;101022.56;4993906;28;20022;-55
2022/01/07 05:12:48;;;;;;;22.10;10.70;;;;;;;1.84;95.54;101016.53;4993884;28;20456;-54
2022/01/07 05:15:15;;;;;;;18.90;10.50;;;;;;;1.71;95.37;100987.63;4993918;28;20063;-57
2022/01/07 05:17:41;;;;;;;18.40;9.43;;;;;;;1.89;95.51;101002.16;4993567;28;20041;-55
2022/01/07 05:20:07;;;;;;;19.92;10.65;;;;;;;1.88;96.37;101011.44;4994214;28;20030;-55
2022/01/07 05:22:33;;;;;;;19.55;10.45;;;;;;;1.90;96.18;100997.53;4993730;28;20033;-55
2022/01/07 05:24:58;;;;;;;20.20;9.70;;;;;;;1.88;96.06;100997.78;4994125;28;20034;-55
2022/01/07 05:27:23;;;;;;;20.65;9.75;;;;;;;1.92;96.18;100998.13;4993612;28;20536;-55
2022/01/07 05:29:49;;;;;;;19.73;9.18;;;;;;;1.93;96.39;101005.25;4993366;28;20026;-55
2022/01/07 05:32:14;;;;;;;20.42;10.73;;;;;;;1.98;96.28;101002.59;4993542;28;20462;-57
2022/01/07 05:34:39;;;;;;;21.13;10.68;;;;;;;1.94;96.56;100998.69;4994128;28;20026;-55
2022/01/07 05:37:07;;;;;;;21.63;10.77;;;;;;;1.95;96.83;100994.88;4993997;28;20092;-56
2022/01/07 05:39:32;;;;;;;21.58;10.82;;;;;;;1.96;96.86;101008.31;4993759;28;20370;-56
2022/01/07 05:41:59;;;;;;;19.60;10.27;;;;;;;2.01;96.55;101005.66;4993952;28;20031;-56
2022/01/07 05:44:25;;;;;;;20.05;9.98;;;;;;;2.05;96.90;100995.06;4993445;28;20022;-56
2022/01/07 05:46:50;;;;;;;20.23;11.18;;;;;;;2.10;96.96;100999.81;4993477;28;20126;-56
2022/01/07 05:49:15;;;;;;;21.02;10.98;;;;;;;2.12;96.49;100995.78;4993339;28;20023;-55
2022/01/07 05:51:41;;;;;;;20.83;11.52;;;;;;;2.15;96.23;100991.72;4992089;28;20482;-56
2022/01/07 05:54:07;;;;;;;19.15;10.07;;;;;;;2.16;96.62;100993.38;4993845;28;20466;-58
2022/01/07 05:56:33;;;;;;;19.63;10.90;;;;;;;2.17;96.30;100992.31;4993468;28;20054;-57
2022/01/07 05:58:58;;;;;;;21.10;10.75;;;;;;;2.22;96.64;101002.50;4993518;28;20414;-57
2022/01/07 06:01:23;;;;;;;21.55;10.55;;;;;;;2.23;96.17;100974.94;4993188;28;20026;-55
2022/01/07 06:03:48;;;;;;;21.40;10.95;;;;;;;2.35;95.59;100983.03;4992659;28;20381;-55
2022/01/07 06:06:14;;;;;;;21.80;11.68;;;;;;;2.30;96.13;100986.50;4992647;28;20038;-59
2022/01/07 06:08:39;;;;;;;21.17;11.55;;;;;;;2.28;96.68;100988.66;4993385;28;20062;-56
2022/01/07 06:11:04;;;;;;;21.17;11.48;;;;;;;2.32;95.85;100987.09;4993346;28;20026;-56
2022/01/07 06:13:30;;;;;;;22.88;11.75;;;;;;;2.37;96.13;100980.06;4992597;28;20034;-56
2022/01/07 06:15:55;;;;;;;23.55;12.27;;;;;;;2.32;96.94;100976.19;4993276;28;20022;-57
2022/01/07 06:18:21;;;;;;;21.65;12.48;;;;;;;2.33;96.76;100979.72;4992714;28;20133;-56
2022/01/07 06:20:46;;;;;;;23.52;11.45;;;;;;;2.46;95.44;100990.34;4993325;28;20037;-56
2022/01/07 06:23:11;;;;;;;20.30;11.43;;;;;;;2.42;95.98;100978.22;4992946;28;20153;-56
2022/01/07 06:25:38;;;;;;;21.83;12.48;;;;;;;2.51;96.28;100989.59;4993277;28;20030;-56
2022/01/07 06:28:03;;;;;;;22.10;11.65;;;;;;;2.50;95.72;100987.94;4992832;28;20037;-55
2022/01/07 06:30:29;;;;;;;20.67;11.55;;;;;;;2.49;95.94;100986.28;4993279;28;20026;-56
2022/01/07 06:32:54;;;;;;;23.65;12.05;;;;;;;2.50;95.85;100996.94;4992725;28;20065;-57
2022/01/07 06:35:20;;;;;;;20.70;10.70;;;;;;;2.57;95.12;100988.59;4993008;28;20030;-55
2022/01/07 06:37:45;;;;;;;19.00;10.63;;;;;;;2.61;95.02;100989.75;4992989;28;20559;-55
2022/01/07 06:40:11;;;;;;;19.65;10.68;;;;;;;2.55;95.51;100992.66;4993241;28;20521;-55
2022/01/07 06:42:36;;;;;;;21.70;11.48;;;;;;;2.58;96.04;100992.16;4993130;28;20148;-54
2022/01/07 06:45:05;;;;;;;23.33;11.27;;;;;;;2.61;95.40;100983.44;4993294;28;20109;-55
2022/01/07 06:47:31;;;;;;;20.20;11.80;;;;;;;2.60;96.00;100995.44;4993068;28;20497;-57
2022/01/07 06:49:56;;;;;;;23.98;11.57;;;;;;;2.61;95.62;100988.91;4993430;28;20030;-56
2022/01/07 06:52:22;;;;;;;24.70;11.70;;;;;;;2.62;95.99;100988.69;4992607;28;20202;-55
2022/01/07 06:54:47;;;;;;;21.67;11.07;;;;;;;2.62;95.64;100985.94;4992635;28;20109;-55
2022/01/07 06:57:12;;;;;;;22.83;11.23;;;;;;;2.64;95.54;100981.06;4992938;28;20030;-55
2022/01/07 06:59:37;;;;;;;21.08;11.70;;;;;;;2.62;96.05;100983.22;4992923;28;20048;-56
2022/01/07 07:02:03;;;;;;;21.50;12.02;;;;;;;2.64;95.98;100981.06;4991745;28;20030;-54
2022/01/07 07:04:29;;;;;;;22.27;11.80;;;;;;;2.67;95.46;100990.66;4994205;28;20385;-54
2022/01/07 07:06:54;;;;;;;24.17;13.15;;;;;;;2.64;95.69;100996.63;4996798;28;20033;-55
2022/01/07 07:09:20;;;;;;;21.70;12.45;;;;;;;2.68;96.29;100994.22;4996011;28;20109;-56
2022/01/07 07:11:46;;;;;;;20.92;11.63;;;;;;;2.74;95.46;101001.44;4996431;28;20437;-56
2022/01/07 07:14:11;;;;;;;21.67;11.32;;;;;;;2.78;95.45;101008.03;4995823;28;20035;-56
2022/01/07 07:16:37;;;;;;;24.17;12.27;;;;;;;2.77;95.44;100999.03;4995698;28;20061;-56
2022/01/07 07:19:03;;;;;;;21.60;10.65;;;;;;;2.80;95.18;101011.34;4996224;28;20034;-56
2022/01/07 07:21:28;;;;;;;22.77;10.73;;;;;;;2.83;95.37;101005.38;4995980;28;20076;-56
2022/01/07 07:23:53;;;;;;;22.13;11.18;;;;;;;2.86;95.63;101013.06;4996278;28;20038;-56
2022/01/07 07:26:19;;;;;;;25.25;13.40;;;;;;;2.81;95.77;101002.06;4996291;28;20041;-56
2022/01/07 07:28:45;;;;;;;21.58;11.73;;;;;;;2.85;95.62;101005.13;4996239;28;20319;-56
2022/01/07 07:31:13;;;;;;;20.33;10.57;;;;;;;2.99;94.57;101009.16;4996292;28;20105;-56
2022/01/07 07:36:27;;;;;;;23.35;12.73;;;;;;;2.93;95.10;100996.50;4990030;28;20034;-56
2022/01/07 07:38:58;;;;;;;22.50;12.35;;;;;;;2.84;95.54;100996.09;4974864;28;20066;-56
2022/01/07 07:41:24;;;;;;;22.52;13.07;;;;;;;2.90;95.87;100997.84;4974197;28;20434;-56
2022/01/07 07:43:50;;;;;;;21.85;12.57;;;;;;;2.91;95.63;100994.03;4974404;28;20037;-56
2022/01/07 07:46:16;;;;;;;24.30;13.07;;;;;;;2.96;95.51;100993.28;4974534;28;20053;-56
2022/01/07 07:48:42;;;;;;;23.98;13.25;;;;;;;2.93;95.88;100986.38;4974561;28;20114;-55
2022/01/07 07:51:07;;;;;;;25.20;13.52;;;;;;;2.94;95.63;100989.97;4974396;28;20113;-55
2022/01/07 07:53:32;;;;;;;22.40;12.70;;;;;;;2.94;95.61;100981.75;4974016;28;20055;-56
2022/01/07 07:55:58;;;;;;;23.33;12.80;;;;;;;2.96;95.31;100976.88;4971341;28;20026;-56
2022/01/07 07:58:27;;;;;;;23.92;13.18;;;;;;;2.94;95.41;100971.66;4974421;28;20097;-56
2022/01/07 08:00:52;;;;;;;23.85;11.98;;;;;;;3.02;95.25;100975.84;4973911;28;20034;-56
2022/01/07 08:03:20;;;;;;;23.33;12.18;;;;;;;3.00;94.85;100964.34;4973984;28;20442;-56
2022/01/07 08:05:45;;;;;;;21.50;12.43;;;;;;;3.07;95.45;100975.09;4974036;28;20035;-56
2022/01/07 08:08:11;;;;;;;23.35;11.95;;;;;;;3.08;95.11;100984.97;4974147;28;20042;-56
2022/01/07 08:10:44;;;;;;;22.80;11.95;;;;;;;3.11;95.01;100988.00;4973821;28;20035;-55
2022/01/07 08:18:23;;;;;;;21.13;11.35;;;;;;;3.33;93.99;100991.84;4973969;28;20053;-56
2022/01/07 08:20:49;;;;;;;22.50;11.88;;;;;;;3.22;94.15;100979.94;4973715;28;20514;-56
2022/01/07 08:23:14;;;;;;;24.00;12.48;;;;;;;3.23;94.20;100976.13;5004313;28;20193;-56
2022/01/07 08:25:40;;;;;;;22.50;11.95;;;;;;;3.25;95.02;100974.78;4973753;28;20058;-56
2022/01/07 08:28:06;;;;;;;22.42;12.25;;;;;;;3.28;94.08;100968.84;4973667;28;20038;-56
2022/01/07 08:30:37;;;;;;;23.35;12.38;;;;;;;3.25;94.27;100974.78;4973881;28;20034;-56
2022/01/07 08:35:50;;;;;;;22.95;11.63;;;;;;;3.26;94.58;100981.06;4973618;28;20105;-56
2022/01/07 08:38:15;;;;;;;23.17;12.77;;;;;;;3.26;95.12;100981.06;4973174;28;20457;-57
2022/01/07 08:40:40;;;;;;;21.15;11.07;;;;;;;3.34;94.35;100988.03;4973564;28;20500;-56
2022/01/07 08:43:06;;;;;;;25.05;12.65;;;;;;;3.36;93.93;100983.94;4973173;28;20371;-57
2022/01/07 08:45:31;;;;;;;21.83;11.48;;;;;;;3.30;94.75;100979.50;4973537;28;20029;-56
2022/01/07 08:47:56;;;;;;;22.02;10.88;;;;;;;3.38;94.38;100979.06;4973457;28;20030;-56
2022/01/07 08:50:22;;;;;;;22.95;11.93;;;;;;;3.35;94.03;100978.75;4973309;28;20027;-57
2022/01/07 08:52:48;;;;;;;21.88;11.70;;;;;;;3.45;93.72;100986.25;4973254;28;20030;-56
2022/01/07 08:55:13;;;;;;;22.17;11.48;;;;;;;3.42;94.38;100985.69;4971341;28;20047;-55
2022/01/07 08:57:38;;;;;;;23.17;12.50;;;;;;;3.46;93.98;100993.34;4973174;28;20109;-55
2022/01/07 09:00:05;;;;;;;23.35;11.93;;;;;;;3.44;94.20;100988.16;4973097;28;20066;-55
2022/01/07 09:02:30;;;;;;;21.88;10.48;;;;;;;3.53;93.68;100992.09;4972358;28;20044;-55
2022/01/07 09:04:56;;;;;;;25.55;11.23;;;;;;;3.55;93.62;100994.56;4973021;28;20117;-56
2022/01/07 09:07:21;;;;;;;23.48;11.30;;;;;;;3.53;93.81;100989.34;4971628;28;20034;-56
2022/01/07 09:09:47;;;;;;;23.00;11.23;;;;;;;3.58;93.04;100989.44;4973092;28;20026;-56
2022/01/07 09:12:12;;;;;;;23.75;11.02;;;;;;;3.62;93.11;100984.28;4972820;28;20038;-56
2022/01/07 09:14:37;;;;;;;22.52;10.77;;;;;;;3.64;93.38;100981.28;4972906;28;20031;-56
2022/01/07 09:17:03;;;;;;;20.25;10.68;;;;;;;3.61;92.98;100974.41;4972704;28;20034;-56
2022/01/07 09:19:28;;;;;;;23.55;12.43;;;;;;;3.56;93.14;100986.13;4972652;28;20031;-56
2022/01/07 09:21:56;;;;;;;22.40;11.35;;;;;;;3.59;93.52;100984.78;4972469;28;20106;-56
2022/01/07 09:24:21;;;;;;;22.42;11.95;;;;;;;3.61;93.53;100984.50;4970972;28;20048;-57
2022/01/07 09:26:46;;;;;;;22.75;11.30;;;;;;;3.68;92.67;100979.69;4971727;28;20462;-55
2022/01/07 09:29:12;;;;;;;24.00;12.30;;;;;;;3.62;92.90;100984.28;4972327;28;20066;-56
2022/01/07 09:31:38;;;;;;;24.60;12.60;;;;;;;3.63;93.41;100983.19;4971377;28;20047;-56
2022/01/07 09:34:03;;;;;;;24.73;12.10;;;;;;;3.70;93.30;100980.25;4972048;28;20027;-58
2022/01/07 09:36:28;;;;;;;23.58;12.15;;;;;;;3.73;93.65;100985.22;4972850;28;20046;-56
2022/01/07 09:38:54;;;;;;;21.65;11.40;;;;;;;3.83;92.43;100988.06;4972483;28;20037;-57
2022/01/07 09:41:19;;;;;;;25.23;11.73;;;;;;;3.83;92.67;100990.78;4972342;28;20035;-56
2022/01/07 09:43:44;;;;;;;22.85;10.68;;;;;;;3.87;92.32;100983.69;4972416;28;20053;-56
2022/01/07 09:46:18;;;;;;;20.80;11.23;;;;;;;3.99;92.15;100975.38;4972297;28;20035;-56
2022/01/07 09:48:44;;;;;;;23.88;11.27;;;;;;;4.04;92.15;100969.91;4972906;28;20030;-55
2022/01/07 09:51:10;;;;;;;23.13;10.77;;;;;;;4.10;91.92;100970.81;4972498;28;20035;-60
2022/01/07 09:53:35;;;;;;;22.25;10.40;;;;;;;4.08;91.84;100966.69;4972209;28;20055;-56
2022/01/07 09:56:03;;;;;;;22.13;11.15;;;;;;;4.11;91.46;100974.38;4970644;28;20030;-57
2022/01/07 09:58:29;;;;;;;23.02;11.50;;;;;;;4.11;91.50;100977.94;4972214;28;20394;-55
2022/01/07 10:01:00;;;;;;;22.20;10.65;;;;;;;4.19;91.56;100973.91;4972260;28;20070;-57
2022/01/07 10:03:36;;;;;;;21.45;9.90;;;;;;;4.26;90.52;100974.50;4972690;28;20466;-54
2022/01/07 10:06:01;;;;;;;20.70;10.15;;;;;;;4.26;90.46;100970.94;4971971;28;20446;-55
2022/01/07 10:08:29;;;;;;;22.80;10.90;;;;;;;4.25;90.57;100961.09;4972153;28;20081;-56
2022/01/07 10:11:18;;;;;;;21.35;9.98;;;;;;;4.37;90.33;100962.56;4972150;28;20141;-56
2022/01/07 10:13:49;;;;;;;18.88;9.20;;;;;;;4.39;90.11;100964.22;4972358;28;20031;-57
2022/01/07 10:16:18;;;;;;;22.10;10.40;;;;;;;4.51;89.71;100959.34;4971945;28;20109;-56
2022/01/07 10:18:44;;;;;;;20.65;10.18;;;;;;;4.59;88.72;100956.13;4972145;28;20114;-56
2022/01/07 10:21:11;;;;;;;20.58;10.40;;;;;;;4.68;88.94;100970.16;4971774;28;20048;-55
2022/01/07 10:23:36;;;;;;;20.63;10.10;;;;;;;4.67;87.89;100955.66;4971839;28;20027;-56
2022/01/07 10:26:02;;;;;;;22.38;10.40;;;;;;;4.69;87.89;100950.72;4972175;28;20434;-55
2022/01/07 10:28:33;;;;;;;19.95;9.75;;;;;;;4.60;88.33;100932.31;4971916;28;20038;-55
2022/01/07 10:31:00;;;;;;;20.83;9.98;;;;;;;4.75;88.25;100956.25;4972060;28;20482;-57
2022/01/07 10:33:27;;;;;;;20.40;10.60;;;;;;;4.68;87.93;100948.25;4971734;28;20454;-57
2022/01/07 10:36:17;;;;;;;22.00;9.82;;;;;;;4.80;88.00;100961.75;4971711;28;20027;-56
2022/01/07 10:39:06;;;;;;;21.92;9.88;;;;;;;4.85;87.75;100942.59;4975976;28;20047;-56
2022/01/07 10:41:31;;;;;;;19.90;10.30;;;;;;;4.89;87.53;100937.41;4992475;28;20117;-57
2022/01/07 10:44:02;;;;;;;16.55;8.80;;;;;;;5.02;86.80;100942.41;4995229;28;20542;-56
2022/01/07 10:46:28;;;;;;;20.92;10.18;;;;;;;4.92;87.21;100934.13;4994976;28;20026;-58
2022/01/07 10:48:59;;;;;;;20.77;9.50;;;;;;;4.98;87.30;100938.56;4995028;28;20037;-56
2022/01/07 10:51:33;;;;;;;20.98;9.02;;;;;;;5.06;85.94;100939.94;4995004;28;20086;-56
2022/01/07 10:54:05;;;;;;;15.95;8.38;;;;;;;5.00;86.54;100936.38;4994692;28;20076;-56
2022/01/07 10:56:42;;;;;;;19.02;9.27;;;;;;;5.05;86.56;100930.09;4993290;28;20033;-56
2022/01/07 10:59:12;;;;;;;20.75;9.07;;;;;;;5.09;86.56;100926.56;4994759;28;20030;-56
2022/01/07 11:01:43;;;;;;;18.33;9.18;;;;;;;5.15;85.74;100911.78;4994678;28;20041;-56
2022/01/07 11:04:20;;;;;;;20.02;8.60;;;;;;;5.27;85.53;100913.47;4994698;28;20034;-56
2022/01/07 11:06:48;;;;;;;20.00;9.02;;;;;;;5.31;84.90;100906.31;4994664;28;20461;-56
2022/01/07 11:09:17;;;;;;;19.50;9.25;;;;;;;5.26;84.29;100903.59;4994622;28;20045;-56
2022/01/07 11:11:49;;;;;;;16.85;8.63;;;;;;;5.35;84.58;100915.69;4994495;28;20026;-56
2022/01/07 11:14:37;;;;;;;20.13;8.45;;;;;;;5.44;84.08;100926.94;4994670;28;20080;-56
2022/01/07 11:17:04;;;;;;;17.50;7.80;;;;;;;5.40;83.22;100918.44;4994763;28;20050;-56
2022/01/07 11:19:39;;;;;;;17.98;8.38;;;;;;;5.49;82.97;100928.88;4994678;28;20026;-58
2022/01/07 11:22:06;;;;;;;17.42;8.18;;;;;;;5.51;82.50;100916.56;4994455;28;20026;-56
2022/01/07 11:24:59;;;;;;;19.95;8.48;;;;;;;5.50;83.60;100912.16;4994385;28;20088;-56
2022/01/07 11:27:26;;;;;;;18.77;8.82;;;;;;;5.59;82.88;100926.16;4994209;28;20038;-56
2022/01/07 11:29:59;;;;;;;20.88;8.75;;;;;;;5.53;83.05;100917.09;4993446;28;20027;-56